Time;durP1;ratioP1;P1;durP2;ratioP2;P2;SDS_P1;SDS_P2;PMS_P1;PMS_P2;Temp;Humidity;BMP_temperature;BMP_pressure;BME280_temperature;BME280_humidity;BME280_pressure;Samples;Min_cycle;Max_cycle;Signal;HPM_P1;HPM_P2
2022/03/24 00:01:16;;;;;;;17.35;9.23;;;;;;;;;;6210459;28;20046;-77
2022/03/24 00:04:17;;;;;;;17.45;9.10;;;;;;;;;;6221464;28;20048;-78
2022/03/24 00:07:19;;;;;;;19.55;8.80;;;;;;;;;;6209560;28;20548;-80
2022/03/24 00:10:21;;;;;;;19.92;8.63;;;;;;;;;;6234082;28;20052;-81
2022/03/24 00:13:22;;;;;;;17.95;8.82;;;;;;;;;;6229827;28;20042;-81
2022/03/24 00:16:26;;;;;;;22.00;10.77;;;;;;;;;;6211948;28;20050;-81
2022/03/24 00:19:28;;;;;;;19.52;9.15;;;;;;;;;;6211467;28;20506;-80
2022/03/24 00:22:29;;;;;;;18.73;9.32;;;;;;;;;;6220694;28;20503;-80
2022/03/24 00:25:31;;;;;;;20.00;9.10;;;;;;;;;;6229898;28;20049;-78
2022/03/24 00:28:32;;;;;;;17.73;9.32;;;;;;;;;;6228006;28;20034;-80
2022/03/24 00:31:34;;;;;;;17.40;8.48;;;;;;;;;;6185945;28;20053;-80
2022/03/24 00:34:38;;;;;;;21.33;9.02;;;;;;;;;;6210861;28;20050;-80
2022/03/24 00:37:41;;;;;;;22.17;10.60;;;;;;;;;;6212916;28;20121;-83
2022/03/24 00:40:45;;;;;;;;;;;;;;;;;;6216264;28;20049;-82
2022/03/24 00:43:48;;;;;;;23.98;10.60;;;;;;;;;;6215548;28;20690;-81
2022/03/24 00:46:50;;;;;;;20.85;10.13;;;;;;;;;;6214703;28;20491;-82
2022/03/24 00:49:51;;;;;;;19.83;9.85;;;;;;;;;;6230673;28;20046;-82
2022/03/24 00:52:53;;;;;;;21.55;9.30;;;;;;;;;;6212970;28;20070;-81
2022/03/24 00:55:56;;;;;;;20.42;9.02;;;;;;;;;;6243311;28;20058;-80
2022/03/24 00:58:58;;;;;;;20.45;9.65;;;;;;;;;;6218746;28;20082;-82
2022/03/24 01:02:00;;;;;;;21.52;10.23;;;;;;;;;;6234874;28;20122;-82
2022/03/24 01:05:07;;;;;;;20.42;9.63;;;;;;;;;;6235360;28;20037;-81
2022/03/24 01:08:08;;;;;;;21.45;9.55;;;;;;;;;;6210176;28;20076;-80
2022/03/24 01:11:10;;;;;;;21.67;9.00;;;;;;;;;;6212516;28;20052;-81
2022/03/24 01:14:16;;;;;;;22.90;10.25;;;;;;;;;;6219137;28;20038;-78
2022/03/24 01:17:18;;;;;;;19.35;8.77;;;;;;;;;;6225948;28;20529;-81
2022/03/24 01:20:21;;;;;;;21.05;10.07;;;;;;;;;;6216075;28;20112;-81
2022/03/24 01:23:25;;;;;;;22.17;9.48;;;;;;;;;;6214421;28;20427;-82
2022/03/24 01:26:27;;;;;;;24.92;9.63;;;;;;;;;;6213812;28;20081;-81
2022/03/24 01:29:29;;;;;;;18.40;8.90;;;;;;;;;;6245102;28;20049;-81
2022/03/24 01:32:31;;;;;;;21.05;10.60;;;;;;;;;;6222256;28;20044;-79
2022/03/24 01:35:33;;;;;;;20.90;9.85;;;;;;;;;;6232194;28;20123;-82
2022/03/24 01:38:35;;;;;;;19.55;9.30;;;;;;;;;;6217504;28;20042;-82
2022/03/24 01:41:40;;;;;;;20.80;9.63;;;;;;;;;;6196476;28;20061;-80
2022/03/24 01:44:41;;;;;;;20.88;10.25;;;;;;;;;;6215082;28;20058;-80
2022/03/24 01:47:43;;;;;;;20.70;9.93;;;;;;;;;;6234427;28;20045;-81
2022/03/24 01:50:45;;;;;;;22.60;10.60;;;;;;;;;;6245241;28;20048;-81
2022/03/24 01:53:47;;;;;;;23.23;10.68;;;;;;;;;;6234631;28;20108;-82
2022/03/24 01:56:49;;;;;;;19.38;9.45;;;;;;;;;;6252327;28;20038;-82
2022/03/24 01:59:52;;;;;;;20.63;9.60;;;;;;;;;;6216640;28;20058;-78
2022/03/24 02:02:54;;;;;;;16.80;8.88;;;;;;;;;;6210710;28;20179;-80
2022/03/24 02:05:56;;;;;;;23.25;10.10;;;;;;;;;;6200273;28;20136;-82
2022/03/24 02:08:58;;;;;;;21.67;9.63;;;;;;;;;;6236100;28;20050;-81
2022/03/24 02:12:05;;;;;;;22.33;9.70;;;;;;;;;;6215758;28;20433;-81
2022/03/24 02:15:08;;;;;;;19.48;9.02;;;;;;;;;;6233466;28;20042;-80
2022/03/24 02:18:12;;;;;;;22.27;10.40;;;;;;;;;;6216512;28;20046;-78
2022/03/24 02:21:15;;;;;;;18.98;8.85;;;;;;;;;;6208842;28;20046;-78
2022/03/24 02:24:19;;;;;;;21.27;9.18;;;;;;;;;;6224246;28;20039;-81
2022/03/24 02:27:24;;;;;;;20.75;9.43;;;;;;;;;;6217933;28;20042;-80
2022/03/24 02:30:27;;;;;;;21.95;9.73;;;;;;;;;;6217814;28;20046;-78
2022/03/24 02:33:29;;;;;;;20.95;9.63;;;;;;;;;;6218369;28;20088;-80
2022/03/24 02:36:37;;;;;;;21.23;9.93;;;;;;;;;;6218358;28;20111;-81
2022/03/24 02:39:47;;;;;;;20.50;9.75;;;;;;;;;;6226287;28;20177;-78
2022/03/24 02:42:49;;;;;;;21.55;9.65;;;;;;;;;;6230120;28;20480;-76
2022/03/24 02:45:53;;;;;;;22.33;9.20;;;;;;;;;;6219452;28;20136;-80
2022/03/24 02:48:55;;;;;;;19.67;9.00;;;;;;;;;;6242196;28;20053;-77
2022/03/24 02:51:59;;;;;;;18.88;9.02;;;;;;;;;;6233233;28;20103;-79
2022/03/24 02:55:00;;;;;;;22.15;9.48;;;;;;;;;;6224922;28;20563;-79
2022/03/24 02:58:02;;;;;;;21.23;10.10;;;;;;;;;;6241314;28;20102;-77
2022/03/24 03:01:03;;;;;;;23.10;10.50;;;;;;;;;;6240155;28;20461;-81
2022/03/24 03:04:05;;;;;;;22.85;9.75;;;;;;;;;;6240023;28;20050;-80
2022/03/24 03:07:08;;;;;;;22.95;10.65;;;;;;;;;;6241588;28;20106;-81
2022/03/24 03:10:09;;;;;;;22.42;10.18;;;;;;;;;;6242366;28;20144;-80
2022/03/24 03:13:11;;;;;;;22.08;9.90;;;;;;;;;;6231013;28;20038;-80
2022/03/24 03:16:13;;;;;;;22.58;9.88;;;;;;;;;;6216160;28;20330;-78
2022/03/24 03:19:18;;;;;;;22.38;9.45;;;;;;;;;;6222279;28;20124;-77
2022/03/24 03:22:21;;;;;;;25.38;10.55;;;;;;;;;;6251593;28;20045;-77
2022/03/24 03:25:22;;;;;;;19.73;9.57;;;;;;;;;;6235540;28;20092;-80
2022/03/24 03:28:25;;;;;;;18.65;9.38;;;;;;;;;;6212633;28;20141;-79
2022/03/24 03:31:28;;;;;;;20.60;9.80;;;;;;;;;;6213981;28;20042;-80
2022/03/24 03:34:30;;;;;;;17.98;9.27;;;;;;;;;;6219146;28;20038;-81
2022/03/24 03:37:32;;;;;;;24.00;9.68;;;;;;;;;;6230483;28;20045;-80
2022/03/24 03:40:33;;;;;;;24.52;10.60;;;;;;;;;;6216126;28;20052;-81
2022/03/24 03:43:35;;;;;;;21.58;10.15;;;;;;;;;;6217323;28;20050;-80
2022/03/24 03:46:37;;;;;;;22.30;9.52;;;;;;;;;;6225417;28;20042;-78
2022/03/24 03:49:39;;;;;;;18.77;9.68;;;;;;;;;;6215749;28;20132;-78
2022/03/24 03:53:00;;;;;;;22.98;9.98;;;;;;;;;;6225297;28;20077;-80
2022/03/24 03:56:04;;;;;;;23.17;10.02;;;;;;;;;;6217396;28;20045;-79
2022/03/24 03:59:07;;;;;;;18.98;9.13;;;;;;;;;;6229783;28;20113;-80
2022/03/24 04:02:08;;;;;;;27.48;10.30;;;;;;;;;;6239843;28;20101;-80
2022/03/24 04:05:10;;;;;;;23.85;9.77;;;;;;;;;;6239741;28;20029;-79
2022/03/24 04:08:13;;;;;;;21.92;10.48;;;;;;;;;;6214963;28;20129;-77
2022/03/24 04:11:15;;;;;;;20.63;9.68;;;;;;;;;;6216267;28;20125;-81
2022/03/24 04:14:16;;;;;;;22.15;9.85;;;;;;;;;;6248646;28;20061;-77
2022/03/24 04:17:18;;;;;;;21.30;9.70;;;;;;;;;;6216133;28;20038;-79
2022/03/24 04:20:21;;;;;;;18.35;9.57;;;;;;;;;;6214814;28;20073;-80
2022/03/24 04:23:23;;;;;;;22.42;11.00;;;;;;;;;;6216346;28;20054;-81
2022/03/24 04:26:25;;;;;;;23.25;9.82;;;;;;;;;;6214748;28;20116;-79
2022/03/24 04:29:26;;;;;;;19.83;9.60;;;;;;;;;;6228467;28;20124;-80
2022/03/24 04:32:28;;;;;;;21.10;9.48;;;;;;;;;;6240503;28;20055;-79
2022/03/24 04:35:30;;;;;;;19.83;9.18;;;;;;;;;;6243721;28;20061;-79
2022/03/24 04:38:31;;;;;;;29.58;10.07;;;;;;;;;;6248582;28;20109;-78
2022/03/24 04:41:34;;;;;;;22.63;10.25;;;;;;;;;;6242747;28;20057;-81
2022/03/24 04:44:36;;;;;;;25.02;9.82;;;;;;;;;;6224955;28;20050;-79
2022/03/24 04:47:38;;;;;;;25.95;10.48;;;;;;;;;;6232882;28;20130;-80
2022/03/24 04:50:39;;;;;;;26.77;9.73;;;;;;;;;;6219252;28;20042;-80
2022/03/24 04:53:43;;;;;;;19.98;9.48;;;;;;;;;;6216751;28;20069;-80
2022/03/24 04:56:45;;;;;;;23.52;10.82;;;;;;;;;;6215643;28;20050;-79
2022/03/24 04:59:47;;;;;;;24.48;10.93;;;;;;;;;;6215702;28;20038;-79
2022/03/24 05:02:49;;;;;;;24.77;11.23;;;;;;;;;;6231352;28;20045;-81
2022/03/24 05:05:51;;;;;;;25.70;10.68;;;;;;;;;;6219011;28;20195;-79
2022/03/24 05:08:53;;;;;;;22.67;9.65;;;;;;;;;;6214446;28;20145;-80
2022/03/24 05:11:54;;;;;;;21.60;10.52;;;;;;;;;;6224917;28;20532;-78
2022/03/24 05:14:57;;;;;;;20.17;9.80;;;;;;;;;;6217573;28;20419;-78
2022/03/24 05:17:58;;;;;;;23.60;11.75;;;;;;;;;;6215683;28;20180;-82
2022/03/24 05:21:05;;;;;;;22.20;10.00;;;;;;;;;;6220296;28;20042;-83
2022/03/24 05:24:07;;;;;;;22.58;10.45;;;;;;;;;;6220336;28;20061;-79
2022/03/24 05:27:08;;;;;;;21.20;10.05;;;;;;;;;;6237900;28;20082;-77
2022/03/24 05:30:10;;;;;;;24.80;11.02;;;;;;;;;;6239199;28;20112;-78
2022/03/24 05:33:13;;;;;;;20.33;10.98;;;;;;;;;;6240559;28;20034;-78
2022/03/24 05:36:15;;;;;;;21.13;9.65;;;;;;;;;;6239141;28;20048;-80
2022/03/24 05:39:17;;;;;;;24.63;10.15;;;;;;;;;;6250141;28;20128;-79
2022/03/24 05:42:19;;;;;;;22.90;10.05;;;;;;;;;;6215370;28;20045;-79
2022/03/24 05:45:20;;;;;;;22.23;10.57;;;;;;;;;;6239788;28;20542;-78
2022/03/24 05:48:23;;;;;;;21.05;10.35;;;;;;;;;;6218167;28;20041;-78
2022/03/24 05:51:56;;;;;;;22.35;10.35;;;;;;;;;;6234538;28;20042;-78
2022/03/24 05:54:58;;;;;;;23.30;10.88;;;;;;;;;;6217403;28;20116;-78
2022/03/24 05:58:00;;;;;;;20.85;11.27;;;;;;;;;;6217102;28;20133;-78
2022/03/24 06:01:02;;;;;;;19.95;10.35;;;;;;;;;;6216408;28;20132;-78
2022/03/24 06:04:04;;;;;;;24.40;10.63;;;;;;;;;;6218213;28;20056;-80
2022/03/24 06:07:07;;;;;;;23.52;10.80;;;;;;;;;;6218183;28;20180;-79
2022/03/24 06:10:11;;;;;;;22.02;11.07;;;;;;;;;;6220223;28;20795;-80
2022/03/24 06:13:12;;;;;;;24.20;10.52;;;;;;;;;;6217548;28;20089;-78
2022/03/24 06:16:14;;;;;;;21.08;9.48;;;;;;;;;;6216870;28;20120;-78
2022/03/24 06:19:16;;;;;;;23.83;10.73;;;;;;;;;;6219191;28;20053;-79
2022/03/24 06:22:18;;;;;;;23.85;10.57;;;;;;;;;;6218908;28;20050;-78
2022/03/24 06:25:20;;;;;;;21.80;10.15;;;;;;;;;;6234841;28;20084;-80
2022/03/24 06:28:22;;;;;;;21.95;10.20;;;;;;;;;;6224015;28;20156;-80
2022/03/24 06:31:24;;;;;;;21.85;11.18;;;;;;;;;;6227692;28;20054;-79
2022/03/24 06:34:26;;;;;;;22.10;10.23;;;;;;;;;;6242717;28;20049;-80
2022/03/24 06:37:27;;;;;;;26.50;12.18;;;;;;;;;;6236225;28;20133;-80
2022/03/24 06:40:29;;;;;;;29.30;13.60;;;;;;;;;;6218618;28;20061;-75
2022/03/24 06:43:34;;;;;;;35.65;14.80;;;;;;;;;;6217235;28;20132;-80
2022/03/24 06:46:36;;;;;;;30.15;13.48;;;;;;;;;;6227958;28;20037;-78
2022/03/24 06:49:38;;;;;;;27.85;13.05;;;;;;;;;;6242323;28;20069;-78
2022/03/24 06:52:40;;;;;;;30.08;13.57;;;;;;;;;;6219054;28;20042;-81
2022/03/24 06:55:42;;;;;;;26.13;13.33;;;;;;;;;;6219348;28;20065;-78
2022/03/24 06:58:43;;;;;;;25.30;11.88;;;;;;;;;;6215884;28;20572;-80
2022/03/24 07:01:46;;;;;;;22.48;11.82;;;;;;;;;;6216163;28;20118;-79
2022/03/24 07:04:48;;;;;;;27.75;12.45;;;;;;;;;;6216685;28;20046;-79
2022/03/24 07:07:50;;;;;;;24.25;12.00;;;;;;;;;;6219927;28;20050;-81
2022/03/24 07:10:52;;;;;;;27.27;13.43;;;;;;;;;;6217263;28;20061;-79
2022/03/24 07:13:53;;;;;;;29.02;13.68;;;;;;;;;;6219480;28;20069;-80
2022/03/24 07:16:55;;;;;;;25.15;12.02;;;;;;;;;;6220723;28;20113;-81
2022/03/24 07:19:57;;;;;;;28.40;13.32;;;;;;;;;;6220661;28;20065;-79
2022/03/24 07:23:01;;;;;;;27.65;12.90;;;;;;;;;;6201493;28;20535;-77
2022/03/24 07:26:03;;;;;;;23.27;12.85;;;;;;;;;;6219258;28;20096;-80
2022/03/24 07:29:05;;;;;;;29.73;14.73;;;;;;;;;;6231262;28;20116;-81
2022/03/24 07:32:08;;;;;;;30.45;16.13;;;;;;;;;;6219137;28;20139;-80
2022/03/24 07:35:11;;;;;;;28.33;13.60;;;;;;;;;;6216529;28;20040;-81
2022/03/24 07:38:13;;;;;;;27.25;13.73;;;;;;;;;;6216100;28;20143;-81
2022/03/24 07:41:23;;;;;;;27.20;12.77;;;;;;;;;;6218375;28;20049;-79
2022/03/24 07:44:25;;;;;;;25.98;13.55;;;;;;;;;;6214052;28;20196;-80
2022/03/24 07:47:27;;;;;;;28.35;13.23;;;;;;;;;;6233098;28;20187;-78
2022/03/24 07:50:29;;;;;;;31.45;14.20;;;;;;;;;;6239351;28;20123;-80
2022/03/24 07:53:49;;;;;;;25.23;13.10;;;;;;;;;;6213356;28;20034;-81
2022/03/24 07:56:50;;;;;;;26.15;12.88;;;;;;;;;;6212197;28;20116;-80
2022/03/24 07:59:52;;;;;;;26.48;13.05;;;;;;;;;;6215886;28;20122;-78
2022/03/24 08:02:54;;;;;;;22.70;13.63;;;;;;;;;;6238596;28;20073;-81
2022/03/24 08:05:56;;;;;;;21.35;12.25;;;;;;;;;;6233974;28;20050;-78
2022/03/24 08:08:59;;;;;;;22.27;12.38;;;;;;;;;;6213547;28;20131;-77
2022/03/24 08:12:00;;;;;;;23.50;12.80;;;;;;;;;;6216429;28;20062;-80
2022/03/24 08:15:03;;;;;;;24.80;12.82;;;;;;;;;;6216769;28;20049;-80
2022/03/24 08:18:05;;;;;;;22.88;12.63;;;;;;;;;;6215678;28;20100;-79
2022/03/24 08:21:08;;;;;;;25.17;12.93;;;;;;;;;;6216438;28;20046;-81
2022/03/24 08:24:14;;;;;;;22.90;12.45;;;;;;;;;;6217149;28;20041;-80
2022/03/24 08:27:16;;;;;;;21.35;12.07;;;;;;;;;;6215626;28;20072;-79
2022/03/24 08:30:18;;;;;;;23.02;12.52;;;;;;;;;;6216605;28;20088;-80
2022/03/24 08:33:19;;;;;;;29.05;13.35;;;;;;;;;;6218239;28;20140;-81
2022/03/24 08:36:21;;;;;;;22.40;12.90;;;;;;;;;;6216473;28;20052;-80
2022/03/24 08:39:23;;;;;;;26.08;13.32;;;;;;;;;;6215486;28;20136;-78
2022/03/24 08:42:25;;;;;;;35.08;16.35;;;;;;;;;;6213672;28;20073;-79
2022/03/24 08:45:27;;;;;;;30.50;14.27;;;;;;;;;;6214854;28;20050;-78
2022/03/24 08:48:29;;;;;;;26.02;13.90;;;;;;;;;;6219665;28;20529;-82
2022/03/24 08:51:31;;;;;;;23.27;13.50;;;;;;;;;;6233713;28;20105;-81
2022/03/24 08:54:33;;;;;;;28.88;16.00;;;;;;;;;;6216144;28;20065;-82
2022/03/24 08:57:35;;;;;;;26.77;13.68;;;;;;;;;;6214285;28;20142;-79
2022/03/24 09:00:37;;;;;;;23.75;13.10;;;;;;;;;;6217396;28;20074;-81
2022/03/24 09:03:39;;;;;;;22.25;13.18;;;;;;;;;;6227769;28;20402;-82
2022/03/24 09:06:42;;;;;;;25.02;13.95;;;;;;;;;;6242509;28;20048;-79
2022/03/24 09:09:44;;;;;;;22.20;13.23;;;;;;;;;;6223896;28;20124;-81
2022/03/24 09:12:47;;;;;;;25.13;14.15;;;;;;;;;;6217368;28;20046;-79
2022/03/24 09:15:50;;;;;;;24.55;14.43;;;;;;;;;;6202279;28;20034;-78
2022/03/24 09:18:52;;;;;;;26.13;15.68;;;;;;;;;;6214538;28;20484;-81
2022/03/24 09:21:53;;;;;;;38.17;20.17;;;;;;;;;;6234563;28;20048;-77
2022/03/24 09:24:56;;;;;;;43.25;23.38;;;;;;;;;;6237890;28;20684;-80
2022/03/24 09:27:58;;;;;;;41.47;22.67;;;;;;;;;;6218247;28;20504;-80
2022/03/24 09:31:00;;;;;;;41.78;22.35;;;;;;;;;;6189881;28;20042;-77
2022/03/24 09:34:03;;;;;;;40.72;21.83;;;;;;;;;;6190279;28;20054;-79
2022/03/24 09:37:04;;;;;;;40.08;21.63;;;;;;;;;;6204905;28;20045;-79
2022/03/24 09:40:07;;;;;;;38.83;21.95;;;;;;;;;;6221843;28;20483;-79
2022/03/24 09:43:09;;;;;;;39.75;21.52;;;;;;;;;;6235743;28;20121;-81
2022/03/24 09:46:11;;;;;;;39.90;22.10;;;;;;;;;;6224508;28;20052;-81
2022/03/24 09:49:14;;;;;;;37.95;21.13;;;;;;;;;;6242596;28;20052;-80
2022/03/24 09:52:15;;;;;;;34.83;19.27;;;;;;;;;;6238861;28;20042;-81
2022/03/24 09:55:18;;;;;;;34.97;20.23;;;;;;;;;;6239846;28;20507;-79
2022/03/24 09:58:25;;;;;;;39.20;20.95;;;;;;;;;;6230674;28;20045;-79
2022/03/24 10:01:27;;;;;;;33.92;19.58;;;;;;;;;;6214468;28;20124;-79
2022/03/24 10:04:50;;;;;;;33.70;19.58;;;;;;;;;;6214658;28;20048;-80
2022/03/24 10:07:52;;;;;;;35.97;20.83;;;;;;;;;;6214955;28;20038;-79
2022/03/24 10:10:59;;;;;;;36.80;20.90;;;;;;;;;;6217587;28;20093;-79
2022/03/24 10:14:02;;;;;;;34.33;20.02;;;;;;;;;;6217994;28;20076;-80
2022/03/24 10:17:11;;;;;;;34.30;20.05;;;;;;;;;;6219218;28;20038;-80
2022/03/24 10:20:16;;;;;;;33.83;20.13;;;;;;;;;;6218613;28;20546;-79
2022/03/24 10:23:18;;;;;;;30.25;18.75;;;;;;;;;;6215661;28;20037;-80
2022/03/24 10:26:20;;;;;;;35.58;20.42;;;;;;;;;;6219636;28;20099;-80
2022/03/24 10:29:23;;;;;;;38.92;20.67;;;;;;;;;;6229991;28;20065;-80
2022/03/24 10:32:30;;;;;;;31.23;19.42;;;;;;;;;;6242926;28;20124;-81
2022/03/24 10:35:32;;;;;;;31.58;18.83;;;;;;;;;;6239028;28;20069;-80
2022/03/24 10:38:34;;;;;;;29.23;17.42;;;;;;;;;;6218752;28;20046;-80
2022/03/24 10:41:38;;;;;;;28.88;18.38;;;;;;;;;;6217358;28;20096;-79
2022/03/24 10:45:01;;;;;;;28.67;18.13;;;;;;;;;;6233030;28;20121;-81
2022/03/24 10:48:05;;;;;;;27.17;17.13;;;;;;;;;;6201053;28;20098;-81
2022/03/24 10:51:07;;;;;;;30.45;18.73;;;;;;;;;;6220073;28;20048;-80
2022/03/24 10:54:19;;;;;;;27.50;17.58;;;;;;;;;;6237111;28;20073;-83
2022/03/24 10:57:24;;;;;;;30.27;18.50;;;;;;;;;;6243175;28;20119;-82
2022/03/24 11:00:26;;;;;;;28.45;17.45;;;;;;;;;;6216988;28;20046;-80
2022/03/24 11:03:28;;;;;;;28.27;18.45;;;;;;;;;;6218626;28;20129;-80
2022/03/24 11:06:30;;;;;;;28.27;17.33;;;;;;;;;;6228861;28;20526;-83
2022/03/24 11:09:33;;;;;;;29.65;17.70;;;;;;;;;;6242752;28;20063;-81
2022/03/24 11:12:36;;;;;;;30.67;17.92;;;;;;;;;;6242192;28;20156;-79
2022/03/24 11:15:39;;;;;;;31.58;18.98;;;;;;;;;;6241190;28;20554;-80
2022/03/24 11:18:41;;;;;;;29.58;17.10;;;;;;;;;;6241509;28;20064;-82
2022/03/24 11:21:43;;;;;;;31.17;18.63;;;;;;;;;;6243758;28;20133;-81
2022/03/24 11:24:46;;;;;;;27.80;16.90;;;;;;;;;;6222570;28;20589;-82
2022/03/24 11:27:50;;;;;;;25.70;16.85;;;;;;;;;;6221821;28;20062;-79
2022/03/24 11:30:52;;;;;;;29.45;17.83;;;;;;;;;;6242770;28;20543;-78
2022/03/24 11:33:56;;;;;;;29.52;18.10;;;;;;;;;;6245345;28;20145;-81
2022/03/24 11:36:58;;;;;;;28.55;16.70;;;;;;;;;;6231220;28;20136;-81
2022/03/24 11:40:07;;;;;;;27.70;17.15;;;;;;;;;;6219802;28;20049;-82
2022/03/24 11:43:19;;;;;;;24.63;15.13;;;;;;;;;;6242127;28;20041;-81
2022/03/24 11:46:38;;;;;;;25.30;15.13;;;;;;;;;;6244070;28;20073;-82
2022/03/24 11:49:40;;;;;;;26.83;16.67;;;;;;;;;;6250505;28;20554;-82
2022/03/24 11:52:42;;;;;;;27.83;16.48;;;;;;;;;;6243093;28;20077;-82
2022/03/24 11:55:59;;;;;;;27.10;16.33;;;;;;;;;;6242292;28;20103;-81
2022/03/24 11:59:00;;;;;;;29.05;16.38;;;;;;;;;;6229662;28;20042;-81
2022/03/24 12:02:25;;;;;;;30.35;15.70;;;;;;;;;;6218984;28;20499;-80
2022/03/24 12:05:47;;;;;;;20.90;13.23;;;;;;;;;;6219128;28;20476;-80
2022/03/24 12:09:01;;;;;;;23.40;14.32;;;;;;;;;;6219161;28;20064;-80
2022/03/24 12:12:03;;;;;;;23.83;15.45;;;;;;;;;;6217970;28;20077;-81
2022/03/24 12:15:22;;;;;;;24.77;14.80;;;;;;;;;;6218438;28;20424;-80
2022/03/24 12:18:40;;;;;;;28.92;17.80;;;;;;;;;;6219691;28;20058;-81
2022/03/24 12:21:41;;;;;;;74.97;48.13;;;;;;;;;;6222192;28;20091;-79
2022/03/24 12:24:45;;;;;;;65.82;40.40;;;;;;;;;;6241852;28;20156;-80
2022/03/24 12:28:03;;;;;;;40.22;26.10;;;;;;;;;;6221336;28;20507;-80
2022/03/24 12:31:07;;;;;;;34.88;22.75;;;;;;;;;;6216568;28;20050;-82
2022/03/24 12:34:14;;;;;;;30.13;18.60;;;;;;;;;;6217601;28;20065;-81
2022/03/24 12:37:30;;;;;;;28.80;17.27;;;;;;;;;;6194460;28;20049;-80
2022/03/24 12:40:32;;;;;;;26.40;16.95;;;;;;;;;;6219286;28;20042;-81
2022/03/24 12:43:57;;;;;;;25.67;16.13;;;;;;;;;;6217261;28;20685;-81
2022/03/24 12:46:59;;;;;;;26.75;15.98;;;;;;;;;;6218709;28;20054;-80
2022/03/24 12:50:29;;;;;;;28.90;18.20;;;;;;;;;;6218045;28;20120;-81
2022/03/24 12:53:49;;;;;;;28.13;18.10;;;;;;;;;;6218303;28;20224;-81
2022/03/24 12:56:51;;;;;;;27.23;17.70;;;;;;;;;;6221732;28;20120;-81
2022/03/24 12:59:53;;;;;;;28.05;17.50;;;;;;;;;;6233866;28;20064;-81
2022/03/24 13:02:56;;;;;;;27.50;17.25;;;;;;;;;;6243408;28;20045;-81
2022/03/24 13:06:00;;;;;;;25.17;16.50;;;;;;;;;;6236966;28;20050;-84
2022/03/24 13:09:22;;;;;;;26.90;17.17;;;;;;;;;;6243138;28;20095;-83
2022/03/24 13:12:27;;;;;;;28.63;18.88;;;;;;;;;;6257265;28;20073;-81
2022/03/24 13:15:34;;;;;;;29.67;17.75;;;;;;;;;;6218454;28;20196;-83
2022/03/24 13:18:36;;;;;;;29.50;18.25;;;;;;;;;;6218155;28;20121;-79
2022/03/24 13:21:37;;;;;;;43.13;29.65;;;;;;;;;;6223590;28;20081;-83
2022/03/24 13:24:39;;;;;;;28.55;17.77;;;;;;;;;;6240809;28;20682;-80
2022/03/24 13:27:46;;;;;;;36.03;26.10;;;;;;;;;;6238367;28;20124;-80
2022/03/24 13:30:53;;;;;;;22.35;14.52;;;;;;;;;;6217272;28;20093;-81
2022/03/24 13:33:54;;;;;;;30.05;19.67;;;;;;;;;;6218164;28;20129;-80
2022/03/24 13:37:09;;;;;;;23.35;15.90;;;;;;;;;;6218379;28;20141;-80
2022/03/24 13:40:14;;;;;;;23.17;15.63;;;;;;;;;;6217693;28;20049;-81
2022/03/24 13:43:18;;;;;;;26.98;17.77;;;;;;;;;;6218686;28;20048;-81
2022/03/24 13:46:20;;;;;;;22.05;15.23;;;;;;;;;;6221286;28;20038;-79
2022/03/24 13:49:21;;;;;;;29.50;24.25;;;;;;;;;;6245979;28;20124;-79
2022/03/24 13:52:29;;;;;;;25.15;15.48;;;;;;;;;;6231112;28;20061;-78
2022/03/24 13:55:32;;;;;;;21.15;14.85;;;;;;;;;;6202779;28;20141;-78
2022/03/24 13:58:33;;;;;;;29.23;21.38;;;;;;;;;;6227372;28;20519;-78
2022/03/24 14:01:35;;;;;;;23.63;17.33;;;;;;;;;;6224160;28;20181;-81
2022/03/24 14:04:37;;;;;;;30.60;25.77;;;;;;;;;;6223546;28;20093;-80
2022/03/24 14:07:59;;;;;;;28.98;23.10;;;;;;;;;;6222166;28;20535;-81
2022/03/24 14:11:00;;;;;;;21.95;12.88;;;;;;;;;;6217390;28;20117;-80
2022/03/24 14:14:11;;;;;;;20.48;13.07;;;;;;;;;;6220063;28;20127;-79
2022/03/24 14:17:13;;;;;;;23.08;14.32;;;;;;;;;;6217409;28;20072;-78
2022/03/24 14:20:14;;;;;;;21.10;12.75;;;;;;;;;;6205742;28;20095;-78
2022/03/24 14:23:35;;;;;;;21.98;14.75;;;;;;;;;;6222795;28;20111;-77
2022/03/24 14:26:37;;;;;;;21.35;14.32;;;;;;;;;;6240640;28;21196;-82
2022/03/24 14:29:56;;;;;;;22.08;13.30;;;;;;;;;;6232491;28;20080;-80
2022/03/24 14:32:58;;;;;;;19.67;12.70;;;;;;;;;;6236680;28;20154;-81
2022/03/24 14:36:01;;;;;;;24.10;16.60;;;;;;;;;;6230120;28;20045;-82
2022/03/24 14:39:20;;;;;;;20.45;12.70;;;;;;;;;;6234779;28;20050;-81
2022/03/24 14:42:21;;;;;;;20.33;12.02;;;;;;;;;;6224860;28;20173;-80
2022/03/24 14:45:23;;;;;;;20.10;13.10;;;;;;;;;;6216766;28;20050;-80
2022/03/24 14:48:31;;;;;;;24.00;16.48;;;;;;;;;;6230052;28;20049;-80
2022/03/24 14:51:34;;;;;;;27.85;20.15;;;;;;;;;;6233463;28;20115;-81
2022/03/24 14:54:36;;;;;;;19.58;12.77;;;;;;;;;;6226296;28;20108;-81
2022/03/24 14:57:38;;;;;;;21.52;15.25;;;;;;;;;;6235221;28;20088;-82
2022/03/24 15:00:40;;;;;;;22.37;13.53;;;;;;;;;;6238413;28;20109;-80
2022/03/24 15:03:43;;;;;;;;;;;;;;;;;;6217406;28;20041;-81
2022/03/24 15:06:44;;;;;;;20.33;12.70;;;;;;;;;;6212070;28;19926;-81
2022/03/24 15:09:46;;;;;;;19.37;12.40;;;;;;;;;;6224837;28;20567;-81
2022/03/24 15:12:48;;;;;;;22.00;12.37;;;;;;;;;;6231049;28;20053;-81
2022/03/24 15:16:03;;;;;;;21.98;12.90;;;;;;;;;;6225295;28;20049;-83
2022/03/24 15:19:10;;;;;;;21.63;12.82;;;;;;;;;;6236905;28;20498;-84
2022/03/24 15:22:15;;;;;;;20.58;12.25;;;;;;;;;;6237748;28;20129;-83
2022/03/24 15:25:16;;;;;;;22.73;12.35;;;;;;;;;;6201808;28;20053;-83
2022/03/24 15:28:18;;;;;;;22.58;11.98;;;;;;;;;;6238817;28;20169;-81
2022/03/24 15:31:20;;;;;;;21.20;12.18;;;;;;;;;;6240793;28;20358;-82
2022/03/24 15:34:25;;;;;;;19.25;11.25;;;;;;;;;;6243402;28;20041;-82
2022/03/24 15:37:27;;;;;;;17.48;10.77;;;;;;;;;;6240751;28;20052;-83
2022/03/24 15:40:29;;;;;;;18.83;10.77;;;;;;;;;;6239830;28;20479;-82
2022/03/24 15:43:30;;;;;;;18.27;11.73;;;;;;;;;;6234375;28;20559;-82
2022/03/24 15:46:32;;;;;;;20.65;12.63;;;;;;;;;;6230747;28;20458;-80
2022/03/24 15:49:34;;;;;;;22.17;12.27;;;;;;;;;;6246316;28;20499;-82
2022/03/24 15:52:37;;;;;;;21.00;12.63;;;;;;;;;;6220609;28;20139;-84
2022/03/24 15:55:39;;;;;;;20.08;12.80;;;;;;;;;;6195362;28;20133;-87
2022/03/24 15:58:41;;;;;;;20.70;12.02;;;;;;;;;;6201957;28;20129;-87
2022/03/24 16:01:43;;;;;;;19.05;11.82;;;;;;;;;;6239153;28;20068;-85
2022/03/24 16:04:44;;;;;;;20.48;12.48;;;;;;;;;;6240466;28;20124;-84
2022/03/24 16:07:46;;;;;;;20.17;11.57;;;;;;;;;;6233623;28;20045;-83
2022/03/24 16:10:48;;;;;;;22.63;12.90;;;;;;;;;;6264133;28;20191;-83
2022/03/24 16:13:49;;;;;;;22.83;12.93;;;;;;;;;;6214562;28;20117;-85
2022/03/24 16:16:51;;;;;;;22.00;12.63;;;;;;;;;;6219543;28;20095;-83
2022/03/24 16:19:52;;;;;;;22.08;13.38;;;;;;;;;;6229060;28;20132;-84
2022/03/24 16:22:54;;;;;;;24.83;12.48;;;;;;;;;;6231830;28;20052;-82
2022/03/24 16:25:56;;;;;;;23.42;12.23;;;;;;;;;;6244285;28;20109;-83
2022/03/24 16:28:58;;;;;;;21.67;12.13;;;;;;;;;;6232151;28;20065;-85
2022/03/24 16:32:02;;;;;;;22.65;11.88;;;;;;;;;;6225333;28;20172;-83
2022/03/24 16:35:07;;;;;;;23.73;12.57;;;;;;;;;;6229986;28;20068;-84
2022/03/24 16:38:09;;;;;;;20.98;12.70;;;;;;;;;;6215143;28;20427;-85
2022/03/24 16:41:10;;;;;;;21.17;11.83;;;;;;;;;;6218976;28;20153;-83
2022/03/24 16:44:13;;;;;;;21.60;12.63;;;;;;;;;;6218449;28;20044;-84
2022/03/24 16:47:15;;;;;;;23.17;13.63;;;;;;;;;;6233364;28;20046;-82
2022/03/24 16:50:17;;;;;;;20.75;11.23;;;;;;;;;;6234035;28;20122;-84
2022/03/24 16:53:19;;;;;;;20.58;12.15;;;;;;;;;;6217663;28;20121;-85
2022/03/24 16:56:21;;;;;;;26.92;13.48;;;;;;;;;;6233256;28;20105;-81
2022/03/24 16:59:22;;;;;;;21.73;11.75;;;;;;;;;;6239424;28;20046;-82
2022/03/24 17:02:24;;;;;;;26.83;15.70;;;;;;;;;;6237683;28;20064;-85
2022/03/24 17:05:27;;;;;;;29.15;15.90;;;;;;;;;;6221488;28;20071;-83
2022/03/24 17:08:28;;;;;;;31.98;16.33;;;;;;;;;;6230074;28;20061;-81
2022/03/24 17:11:30;;;;;;;30.98;17.02;;;;;;;;;;6244443;28;20120;-81
2022/03/24 17:14:32;;;;;;;31.80;16.50;;;;;;;;;;6241090;28;20088;-81
2022/03/24 17:17:34;;;;;;;31.52;16.15;;;;;;;;;;6224496;28;20109;-81
2022/03/24 17:20:36;;;;;;;33.70;16.63;;;;;;;;;;6231743;28;20065;-81
2022/03/24 17:23:37;;;;;;;36.60;16.95;;;;;;;;;;6240183;28;20048;-81
2022/03/24 17:26:39;;;;;;;33.70;16.58;;;;;;;;;;6224461;28;20435;-80
2022/03/24 17:29:40;;;;;;;31.70;16.17;;;;;;;;;;6241581;28;20092;-83
2022/03/24 17:32:47;;;;;;;31.80;16.13;;;;;;;;;;6247849;28;20037;-82
2022/03/24 17:35:50;;;;;;;31.27;15.60;;;;;;;;;;6248490;28;20045;-80
2022/03/24 17:38:52;;;;;;;32.20;15.98;;;;;;;;;;6243735;28;20131;-80
2022/03/24 17:42:12;;;;;;;32.92;16.25;;;;;;;;;;6247567;28;20041;-80
2022/03/24 17:45:14;;;;;;;31.27;16.40;;;;;;;;;;6224029;28;20608;-80
2022/03/24 17:48:15;;;;;;;28.80;15.75;;;;;;;;;;6236635;28;20044;-79
2022/03/24 17:51:18;;;;;;;29.65;15.82;;;;;;;;;;6243702;28;20406;-79
2022/03/24 17:54:21;;;;;;;32.28;15.15;;;;;;;;;;6221659;28;20053;-80